Wes Sellars — WDF9302 — position and weather

sailwx.info

Track history (hours):
 
Tides and Currents Weather Stations Pressure Air Temp Water Temp Dewpoint Dewpoint Depression Visibility Wind Speed Wind Dir Waves Ship Positions

Wes Sellars

Owner: Florida Marine, LLC, Mandeville, LA. More information available from US FCC via Universal Licensing System and Coast Guard Vessel Documentation Center.

Last reported at 2016-Aug-13 17:33 UTC. Time now 2016-Aug-25 14:55 UTC.
Position N 29°33' W 090°27'.
Warning: this ship's position is 11 days out of date.

Length 27 m.

Type: Towing. MMSI: 367503760.

Date/timePositionNaut miles runAvg speedWind from/ knotsBaromVisibWave heightAir tempDewpointWater temp
2016-Aug-13 17:33N 29°33' W 090°27'8 7.7
2016-Aug-13 16:33N 29°35' W 090°36'6 5.7
2016-Aug-13 15:33N 29°36' W 090°43'6 5.6
2016-Aug-13 14:33N 29°32' W 090°47'8 7.8
2016-Aug-13 13:32N 29°34' W 090°56'48 6.6
2016-Aug-13 06:19N 29°47' W 091°49'5 6.4
2016-Aug-13 05:33N 29°51' W 091°53'7 7.3
2016-Aug-13 04:33N 29°49' W 092°01'7 6.7
2016-Aug-13 03:33N 29°47' W 092°08'7 6.9
2016-Aug-13 02:34N 29°49' W 092°16'7 7.2
2016-Aug-13 01:34N 29°53' W 092°23'7 7.1
2016-Aug-13 00:33N 29°54' W 092°31'22 6.7
2016-Aug-12 21:22N 29°56' W 092°56'5 6.6
2016-Aug-12 20:33N 29°56' W 093°02'7 6.8
2016-Aug-12 19:33N 29°56' W 093°10'7 6.5
2016-Aug-12 18:33N 30°01' W 093°14'6 5.6
2016-Aug-12 17:33N 30°06' W 093°18'6 5.9
2016-Aug-12 16:33N 30°04' W 093°24'7 7.4
2016-Aug-12 15:33N 30°04' W 093°33'8 7.6
2016-Aug-12 14:33N 30°04' W 093°42'8 7.5
2016-Aug-12 13:33N 29°59' W 093°49'6 5.7
2016-Aug-12 12:33N 29°55' W 093°53'0 0.0
2016-Aug-12 11:31N 29°55' W 093°53'0 0.0
2016-Aug-12 10:32N 29°55' W 093°53'0 0.0
2016-Aug-12 09:33N 29°55' W 093°53'0 0.0
2016-Aug-12 08:18N 29°55' W 093°53'0 0.0
2016-Aug-12 07:33N 29°55' W 093°53'0 0.0
2016-Aug-12 06:33N 29°55' W 093°53'0 0.0
2016-Aug-12 05:30N 29°55' W 093°53'0 0.0
2016-Aug-12 04:32N 29°55' W 093°53'0 0.0
2016-Aug-12 03:32N 29°55' W 093°53'0 0.1
2016-Aug-12 02:33N 29°55' W 093°53'2 2.1
2016-Aug-12 01:34N 29°53' W 093°55'6 6.4
2016-Aug-12 00:33N 29°49' W 093°60'9 7.4
2016-Aug-11 23:21N 29°43' W 094°08'32 3.3
2016-Aug-11 13:32N 29°28' W 094°40'29 2.6
2016-Aug-11 02:33N 29°41' W 094°11'25 5.6
2016-Aug-10 22:05N 29°58' W 093°50'4 6.6
2016-Aug-10 21:33N 29°60' W 093°47'6 5.8
2016-Aug-10 20:33N 30°04' W 093°42'5 5.0
2016-Aug-10 19:33N 30°04' W 093°36'5 4.9
2016-Aug-10 18:33N 30°04' W 093°30'5 5.1
2016-Aug-10 17:33N 30°04' W 093°24'4 3.8
2016-Aug-10 16:33N 30°05' W 093°20'2 2.0
2016-Aug-10 15:33N 30°06' W 093°18'0 0.0
2016-Aug-10 14:33N 30°06' W 093°18'0 0.0
2016-Aug-10 13:33N 30°06' W 093°18'2 1.6
2016-Aug-10 12:33N 30°05' W 093°20'0 0.3
2016-Aug-10 11:33N 30°05' W 093°20'0 0.0
2016-Aug-10 10:33N 30°05' W 093°20'0 0.0
2016-Aug-10 09:33N 30°05' W 093°20'0 0.0
2016-Aug-10 08:33N 30°05' W 093°20'0 0.4
2016-Aug-10 07:34N 30°05' W 093°20'2 2.1
2016-Aug-10 06:33N 30°07' W 093°20'2 1.5
2016-Aug-10 05:33N 30°08' W 093°19'0 0.0
2016-Aug-10 04:33N 30°08' W 093°19'0 0.0
2016-Aug-10 03:33N 30°08' W 093°19'0 0.0
2016-Aug-10 02:33N 30°08' W 093°19'0 0.0
2016-Aug-10 01:33N 30°08' W 093°19'0 0.0
2016-Aug-10 00:33N 30°08' W 093°19'0 0.0
2016-Aug-09 23:33N 30°08' W 093°19'0 0.0
2016-Aug-09 22:33N 30°08' W 093°19'0 0.0
2016-Aug-09 21:33N 30°08' W 093°19'0 0.0
2016-Aug-09 20:33N 30°08' W 093°19'0 0.0
2016-Aug-09 19:33N 30°08' W 093°19'0 0.0
2016-Aug-09 18:33N 30°08' W 093°19'0 0.0
2016-Aug-09 17:33N 30°08' W 093°19'0 0.0
2016-Aug-09 16:33N 30°08' W 093°19'0 0.0
2016-Aug-09 15:33N 30°08' W 093°19'0 0.0
2016-Aug-09 14:33N 30°08' W 093°19'2 1.6
2016-Aug-09 13:33N 30°07' W 093°20'4 4.4
2016-Aug-09 12:33N 30°04' W 093°24'7 6.6
2016-Aug-09 11:33N 30°04' W 093°31'7 6.6
2016-Aug-09 10:33N 30°04' W 093°39'5 5.3
2016-Aug-09 09:33N 30°02' W 093°44'7 6.9
2016-Aug-09 08:33N 29°58' W 093°51'8 7.5
2016-Aug-09 07:34N 29°52' W 093°56'54 5.4
2016-Aug-08 21:31N 29°25' W 094°50'9 8.7
2016-Aug-08 20:31N 29°33' W 094°54'8 8.3
2016-Aug-08 19:33N 29°40' W 094°59'8 7.6
2016-Aug-08 18:33N 29°46' W 095°04'2 1.3
2016-Aug-08 17:09N 29°45' W 095°06'0 0.0
2016-Aug-08 16:26N 29°45' W 095°06'0 0.0
2016-Aug-08 15:33N 29°45' W 095°06'0 0.0
2016-Aug-08 14:33N 29°45' W 095°06'0 0.0
2016-Aug-08 13:33N 29°45' W 095°06'0 0.0
2016-Aug-08 12:33N 29°45' W 095°06'0 0.0
2016-Aug-08 11:34N 29°45' W 095°06'0 0.0
2016-Aug-08 10:33N 29°45' W 095°06'0 0.0
2016-Aug-08 04:33N 29°45' W 095°06'0 0.0
2016-Aug-08 03:32N 29°45' W 095°06'0 0.0
2016-Aug-08 02:33N 29°45' W 095°06'0 0.0
2016-Aug-08 01:33N 29°45' W 095°06'0 0.0
2016-Aug-08 00:33N 29°45' W 095°06'0 0.0
2016-Aug-07 23:33N 29°45' W 095°06'0 0.0
2016-Aug-07 22:33N 29°45' W 095°06'0 0.0
2016-Aug-07 21:33N 29°45' W 095°06'0 0.0
2016-Aug-07 20:33N 29°45' W 095°06'0 0.0
2016-Aug-07 19:33N 29°45' W 095°06'0 0.0
2016-Aug-07 18:33N 29°45' W 095°06'0 0.0
2016-Aug-07 17:33N 29°45' W 095°06'0 0.0
2016-Aug-07 16:33N 29°45' W 095°06'0 0.0
2016-Aug-07 15:33N 29°45' W 095°06'0 0.0
2016-Aug-07 14:33N 29°45' W 095°06'0 0.0
2016-Aug-07 13:33N 29°45' W 095°06'0 0.0
2016-Aug-07 12:33N 29°45' W 095°06'0 0.0
2016-Aug-07 11:33N 29°45' W 095°06'0 0.1
2016-Aug-07 10:31N 29°45' W 095°06'3 3.4
2016-Aug-07 09:33N 29°47' W 095°04'0 0.0
2016-Aug-07 08:33N 29°47' W 095°04'3 2.9
2016-Aug-07 07:33N 29°46' W 095°07'0 0.0
2016-Aug-07 06:33N 29°46' W 095°07'0 0.0
2016-Aug-07 04:33N 29°46' W 095°07'0 0.0
2016-Aug-07 03:32N 29°46' W 095°07'0 0.0
2016-Aug-07 02:23N 29°46' W 095°07'0 0.0
2016-Aug-06 23:09N 29°46' W 095°07'0 0.0
2016-Aug-06 22:30N 29°46' W 095°07'0 0.0
2016-Aug-06 21:32N 29°46' W 095°07'0 0.0
2016-Aug-06 20:28N 29°46' W 095°07'0 0.0
2016-Aug-06 19:33N 29°46' W 095°07'0 0.0
2016-Aug-06 18:33N 29°46' W 095°07'0 0.0
2016-Aug-06 17:33N 29°46' W 095°07'0 0.0
2016-Aug-06 16:33N 29°46' W 095°07'0 0.0
2016-Aug-06 15:33N 29°46' W 095°07'0 0.0
2016-Aug-06 14:33N 29°46' W 095°07'0 0.0
2016-Aug-06 13:33N 29°46' W 095°07'0 0.0
2016-Aug-06 12:33N 29°46' W 095°07'0 0.0
2016-Aug-06 11:33N 29°46' W 095°07'0 0.0
2016-Aug-06 10:33N 29°46' W 095°07'0 0.0
2016-Aug-06 09:33N 29°46' W 095°07'0 0.0
2016-Aug-06 08:33N 29°46' W 095°07'0 0.0
2016-Aug-06 07:33N 29°46' W 095°07'0 0.0
2016-Aug-06 04:31N 29°46' W 095°07'0 0.0
2016-Aug-06 03:25N 29°46' W 095°07'0 0.0
2016-Aug-06 02:33N 29°46' W 095°07'0 0.0
2016-Aug-06 01:32N 29°46' W 095°07'2 0.6
2016-Aug-05 22:33N 29°47' W 095°05'4 2.2
2016-Aug-05 20:33N 29°44' W 095°09'2 0.0
2016-Aug-04 02:17N 29°45' W 095°11'2 2.9
2016-Aug-04 01:33N 29°44' W 095°08'1 1.2
2016-Aug-04 00:34N 29°44' W 095°07'4 3.4
2016-Aug-03 23:26N 29°47' W 095°04'0 0.2
2016-Aug-03 22:31N 29°47' W 095°04'4 4.1
2016-Aug-03 21:33N 29°44' W 095°07'  
Track history (hours):
 
Tides and Currents Weather Stations Pressure Air Temp Water Temp Dewpoint Dewpoint Depression Visibility Wind Speed Wind Dir Waves Ship Positions

Wes Sellars

Owner: Florida Marine, LLC, Mandeville, LA. More information available from US FCC via Universal Licensing System and Coast Guard Vessel Documentation Center.

Last reported at 2016-Aug-13 17:33 UTC. Time now 2016-Aug-25 14:55 UTC.
Position N 29°33' W 090°27'.
Warning: this ship's position is 11 days out of date.

Length 27 m.

Type: Towing. MMSI: 367503760.

Date/timePositionNaut miles runAvg speedWind from/ knotsBaromVisibWave heightAir tempDewpointWater temp
2016-Aug-13 17:33N 29°33' W 090°27'8 7.7
2016-Aug-13 16:33N 29°35' W 090°36'6 5.7
2016-Aug-13 15:33N 29°36' W 090°43'6 5.6
2016-Aug-13 14:33N 29°32' W 090°47'8 7.8
2016-Aug-13 13:32N 29°34' W 090°56'48 6.6
2016-Aug-13 06:19N 29°47' W 091°49'5 6.4
2016-Aug-13 05:33N 29°51' W 091°53'7 7.3
2016-Aug-13 04:33N 29°49' W 092°01'7 6.7
2016-Aug-13 03:33N 29°47' W 092°08'7 6.9
2016-Aug-13 02:34N 29°49' W 092°16'7 7.2
2016-Aug-13 01:34N 29°53' W 092°23'7 7.1
2016-Aug-13 00:33N 29°54' W 092°31'22 6.7
2016-Aug-12 21:22N 29°56' W 092°56'5 6.6
2016-Aug-12 20:33N 29°56' W 093°02'7 6.8
2016-Aug-12 19:33N 29°56' W 093°10'7 6.5
2016-Aug-12 18:33N 30°01' W 093°14'6 5.6
2016-Aug-12 17:33N 30°06' W 093°18'6 5.9
2016-Aug-12 16:33N 30°04' W 093°24'7 7.4
2016-Aug-12 15:33N 30°04' W 093°33'8 7.6
2016-Aug-12 14:33N 30°04' W 093°42'8 7.5
2016-Aug-12 13:33N 29°59' W 093°49'6 5.7
2016-Aug-12 12:33N 29°55' W 093°53'0 0.0
2016-Aug-12 11:31N 29°55' W 093°53'0 0.0
2016-Aug-12 10:32N 29°55' W 093°53'0 0.0
2016-Aug-12 09:33N 29°55' W 093°53'0 0.0
2016-Aug-12 08:18N 29°55' W 093°53'0 0.0
2016-Aug-12 07:33N 29°55' W 093°53'0 0.0
2016-Aug-12 06:33N 29°55' W 093°53'0 0.0
2016-Aug-12 05:30N 29°55' W 093°53'0 0.0
2016-Aug-12 04:32N 29°55' W 093°53'0 0.0
2016-Aug-12 03:32N 29°55' W 093°53'0 0.1
2016-Aug-12 02:33N 29°55' W 093°53'2 2.1
2016-Aug-12 01:34N 29°53' W 093°55'6 6.4
2016-Aug-12 00:33N 29°49' W 093°60'9 7.4
2016-Aug-11 23:21N 29°43' W 094°08'32 3.3
2016-Aug-11 13:32N 29°28' W 094°40'29 2.6
2016-Aug-11 02:33N 29°41' W 094°11'25 5.6
2016-Aug-10 22:05N 29°58' W 093°50'4 6.6
2016-Aug-10 21:33N 29°60' W 093°47'6 5.8
2016-Aug-10 20:33N 30°04' W 093°42'5 5.0
2016-Aug-10 19:33N 30°04' W 093°36'5 4.9
2016-Aug-10 18:33N 30°04' W 093°30'5 5.1
2016-Aug-10 17:33N 30°04' W 093°24'4 3.8
2016-Aug-10 16:33N 30°05' W 093°20'2 2.0
2016-Aug-10 15:33N 30°06' W 093°18'0 0.0
2016-Aug-10 14:33N 30°06' W 093°18'0 0.0
2016-Aug-10 13:33N 30°06' W 093°18'2 1.6
2016-Aug-10 12:33N 30°05' W 093°20'0 0.3
2016-Aug-10 11:33N 30°05' W 093°20'0 0.0
2016-Aug-10 10:33N 30°05' W 093°20'0 0.0
2016-Aug-10 09:33N 30°05' W 093°20'0 0.0
2016-Aug-10 08:33N 30°05' W 093°20'0 0.4
2016-Aug-10 07:34N 30°05' W 093°20'2 2.1
2016-Aug-10 06:33N 30°07' W 093°20'2 1.5
2016-Aug-10 05:33N 30°08' W 093°19'0 0.0
2016-Aug-10 04:33N 30°08' W 093°19'0 0.0
2016-Aug-10 03:33N 30°08' W 093°19'0 0.0
2016-Aug-10 02:33N 30°08' W 093°19'0 0.0
2016-Aug-10 01:33N 30°08' W 093°19'0 0.0
2016-Aug-10 00:33N 30°08' W 093°19'0 0.0
2016-Aug-09 23:33N 30°08' W 093°19'0 0.0
2016-Aug-09 22:33N 30°08' W 093°19'0 0.0
2016-Aug-09 21:33N 30°08' W 093°19'0 0.0
2016-Aug-09 20:33N 30°08' W 093°19'0 0.0
2016-Aug-09 19:33N 30°08' W 093°19'0 0.0
2016-Aug-09 18:33N 30°08' W 093°19'0 0.0
2016-Aug-09 17:33N 30°08' W 093°19'0 0.0
2016-Aug-09 16:33N 30°08' W 093°19'0 0.0
2016-Aug-09 15:33N 30°08' W 093°19'0 0.0
2016-Aug-09 14:33N 30°08' W 093°19'2 1.6
2016-Aug-09 13:33N 30°07' W 093°20'4 4.4
2016-Aug-09 12:33N 30°04' W 093°24'7 6.6
2016-Aug-09 11:33N 30°04' W 093°31'7 6.6
2016-Aug-09 10:33N 30°04' W 093°39'5 5.3
2016-Aug-09 09:33N 30°02' W 093°44'7 6.9
2016-Aug-09 08:33N 29°58' W 093°51'8 7.5
2016-Aug-09 07:34N 29°52' W 093°56'54 5.4
2016-Aug-08 21:31N 29°25' W 094°50'9 8.7
2016-Aug-08 20:31N 29°33' W 094°54'8 8.3
2016-Aug-08 19:33N 29°40' W 094°59'8 7.6
2016-Aug-08 18:33N 29°46' W 095°04'2 1.3
2016-Aug-08 17:09N 29°45' W 095°06'0 0.0
2016-Aug-08 16:26N 29°45' W 095°06'0 0.0
2016-Aug-08 15:33N 29°45' W 095°06'0 0.0
2016-Aug-08 14:33N 29°45' W 095°06'0 0.0
2016-Aug-08 13:33N 29°45' W 095°06'0 0.0
2016-Aug-08 12:33N 29°45' W 095°06'0 0.0
2016-Aug-08 11:34N 29°45' W 095°06'0 0.0
2016-Aug-08 10:33N 29°45' W 095°06'0 0.0
2016-Aug-08 04:33N 29°45' W 095°06'0 0.0
2016-Aug-08 03:32N 29°45' W 095°06'0 0.0
2016-Aug-08 02:33N 29°45' W 095°06'0 0.0
2016-Aug-08 01:33N 29°45' W 095°06'0 0.0
2016-Aug-08 00:33N 29°45' W 095°06'0 0.0
2016-Aug-07 23:33N 29°45' W 095°06'0 0.0
2016-Aug-07 22:33N 29°45' W 095°06'0 0.0
2016-Aug-07 21:33N 29°45' W 095°06'0 0.0
2016-Aug-07 20:33N 29°45' W 095°06'0 0.0
2016-Aug-07 19:33N 29°45' W 095°06'0 0.0
2016-Aug-07 18:33N 29°45' W 095°06'0 0.0
2016-Aug-07 17:33N 29°45' W 095°06'0 0.0
2016-Aug-07 16:33N 29°45' W 095°06'0 0.0
2016-Aug-07 15:33N 29°45' W 095°06'0 0.0
2016-Aug-07 14:33N 29°45' W 095°06'0 0.0
2016-Aug-07 13:33N 29°45' W 095°06'0 0.0
2016-Aug-07 12:33N 29°45' W 095°06'0 0.0
2016-Aug-07 11:33N 29°45' W 095°06'0 0.1
2016-Aug-07 10:31N 29°45' W 095°06'3 3.4
2016-Aug-07 09:33N 29°47' W 095°04'0 0.0
2016-Aug-07 08:33N 29°47' W 095°04'3 2.9
2016-Aug-07 07:33N 29°46' W 095°07'0 0.0
2016-Aug-07 06:33N 29°46' W 095°07'0 0.0
2016-Aug-07 04:33N 29°46' W 095°07'0 0.0
2016-Aug-07 03:32N 29°46' W 095°07'0 0.0
2016-Aug-07 02:23N 29°46' W 095°07'0 0.0
2016-Aug-06 23:09N 29°46' W 095°07'0 0.0
2016-Aug-06 22:30N 29°46' W 095°07'0 0.0
2016-Aug-06 21:32N 29°46' W 095°07'0 0.0
2016-Aug-06 20:28N 29°46' W 095°07'0 0.0
2016-Aug-06 19:33N 29°46' W 095°07'0 0.0
2016-Aug-06 18:33N 29°46' W 095°07'0 0.0
2016-Aug-06 17:33N 29°46' W 095°07'0 0.0
2016-Aug-06 16:33N 29°46' W 095°07'0 0.0
2016-Aug-06 15:33N 29°46' W 095°07'0 0.0
2016-Aug-06 14:33N 29°46' W 095°07'0 0.0
2016-Aug-06 13:33N 29°46' W 095°07'0 0.0
2016-Aug-06 12:33N 29°46' W 095°07'0 0.0
2016-Aug-06 11:33N 29°46' W 095°07'0 0.0
2016-Aug-06 10:33N 29°46' W 095°07'0 0.0
2016-Aug-06 09:33N 29°46' W 095°07'0 0.0
2016-Aug-06 08:33N 29°46' W 095°07'0 0.0
2016-Aug-06 07:33N 29°46' W 095°07'0 0.0
2016-Aug-06 04:31N 29°46' W 095°07'0 0.0
2016-Aug-06 03:25N 29°46' W 095°07'0 0.0
2016-Aug-06 02:33N 29°46' W 095°07'0 0.0
2016-Aug-06 01:32N 29°46' W 095°07'2 0.6
2016-Aug-05 22:33N 29°47' W 095°05'4 2.2
2016-Aug-05 20:33N 29°44' W 095°09'2 0.0
2016-Aug-04 02:17N 29°45' W 095°11'2 2.9
2016-Aug-04 01:33N 29°44' W 095°08'1 1.2
2016-Aug-04 00:34N 29°44' W 095°07'4 3.4
2016-Aug-03 23:26N 29°47' W 095°04'0 0.2
2016-Aug-03 22:31N 29°47' W 095°04'4 4.1
2016-Aug-03 21:33N 29°44' W 095°07'  

Dump ship's entire track history